sensor_id;sensor_type;location;lat;lon;timestamp;P1;durP1;ratioP1;P2;durP2;ratioP2
4766;SDS011;2397;53.576;9.746;2022-09-13T00:00:57;3.57;;;3.37;;
4766;SDS011;2397;53.576;9.746;2022-09-13T00:03:24;3.47;;;3.27;;
4766;SDS011;2397;53.576;9.746;2022-09-13T00:05:51;4.50;;;3.70;;
4766;SDS011;2397;53.576;9.746;2022-09-13T00:08:18;3.80;;;3.50;;
4766;SDS011;2397;53.576;9.746;2022-09-13T00:10:45;3.97;;;3.63;;
4766;SDS011;2397;53.576;9.746;2022-09-13T00:13:12;3.77;;;3.30;;
4766;SDS011;2397;53.576;9.746;2022-09-13T00:15:44;3.70;;;3.40;;
4766;SDS011;2397;53.576;9.746;2022-09-13T00:18:15;3.80;;;3.50;;
4766;SDS011;2397;53.576;9.746;2022-09-13T00:20:43;3.87;;;3.60;;
4766;SDS011;2397;53.576;9.746;2022-09-13T00:23:10;4.80;;;3.40;;
4766;SDS011;2397;53.576;9.746;2022-09-13T00:25:37;3.87;;;3.57;;
4766;SDS011;2397;53.576;9.746;2022-09-13T00:28:04;4.47;;;4.00;;
4766;SDS011;2397;53.576;9.746;2022-09-13T00:30:31;7.13;;;4.40;;
4766;SDS011;2397;53.576;9.746;2022-09-13T00:32:57;5.07;;;4.10;;
4766;SDS011;2397;53.576;9.746;2022-09-13T00:35:24;4.57;;;4.07;;
4766;SDS011;2397;53.576;9.746;2022-09-13T00:37:50;4.77;;;4.30;;
4766;SDS011;2397;53.576;9.746;2022-09-13T00:40:17;4.77;;;4.00;;
4766;SDS011;2397;53.576;9.746;2022-09-13T00:42:43;5.73;;;4.20;;
4766;SDS011;2397;53.576;9.746;2022-09-13T00:52:48;5.50;;;5.10;;
4766;SDS011;2397;53.576;9.746;2022-09-13T00:57:50;5.20;;;4.70;;
4766;SDS011;2397;53.576;9.746;2022-09-13T01:00:19;5.03;;;4.60;;
4766;SDS011;2397;53.576;9.746;2022-09-13T01:02:53;5.40;;;4.90;;
4766;SDS011;2397;53.576;9.746;2022-09-13T01:05:24;5.30;;;4.77;;
4766;SDS011;2397;53.576;9.746;2022-09-13T01:07:55;5.53;;;5.13;;
4766;SDS011;2397;53.576;9.746;2022-09-13T01:10:22;7.50;;;5.07;;
4766;SDS011;2397;53.576;9.746;2022-09-13T01:15:41;6.03;;;5.00;;
4766;SDS011;2397;53.576;9.746;2022-09-13T01:18:08;5.50;;;4.53;;
4766;SDS011;2397;53.576;9.746;2022-09-13T01:23:38;7.60;;;5.53;;
4766;SDS011;2397;53.576;9.746;2022-09-13T01:26:22;6.40;;;5.83;;
4766;SDS011;2397;53.576;9.746;2022-09-13T01:37:52;6.60;;;5.73;;
4766;SDS011;2397;53.576;9.746;2022-09-13T01:43:33;6.30;;;5.70;;
4766;SDS011;2397;53.576;9.746;2022-09-13T01:46:08;8.17;;;5.50;;
4766;SDS011;2397;53.576;9.746;2022-09-13T01:48:47;6.67;;;6.07;;
4766;SDS011;2397;53.576;9.746;2022-09-13T01:51:36;6.40;;;5.80;;
4766;SDS011;2397;53.576;9.746;2022-09-13T01:57:15;7.53;;;6.83;;
4766;SDS011;2397;53.576;9.746;2022-09-13T01:59:50;6.70;;;6.10;;
4766;SDS011;2397;53.576;9.746;2022-09-13T02:02:27;6.50;;;5.93;;
4766;SDS011;2397;53.576;9.746;2022-09-13T02:05:01;7.00;;;6.40;;
4766;SDS011;2397;53.576;9.746;2022-09-13T02:07:42;6.57;;;5.90;;
4766;SDS011;2397;53.576;9.746;2022-09-13T02:10:13;6.63;;;6.03;;
4766;SDS011;2397;53.576;9.746;2022-09-13T02:13:03;5.83;;;5.43;;
4766;SDS011;2397;53.576;9.746;2022-09-13T02:15:43;7.50;;;6.80;;
4766;SDS011;2397;53.576;9.746;2022-09-13T02:18:14;9.93;;;5.80;;
4766;SDS011;2397;53.576;9.746;2022-09-13T02:20:48;7.70;;;5.67;;
4766;SDS011;2397;53.576;9.746;2022-09-13T02:23:25;6.20;;;5.70;;
4766;SDS011;2397;53.576;9.746;2022-09-13T02:25:57;6.00;;;5.50;;
4766;SDS011;2397;53.576;9.746;2022-09-13T02:28:42;8.03;;;6.37;;
4766;SDS011;2397;53.576;9.746;2022-09-13T02:31:15;8.37;;;6.47;;
4766;SDS011;2397;53.576;9.746;2022-09-13T02:33:48;6.93;;;6.33;;
4766;SDS011;2397;53.576;9.746;2022-09-13T02:36:20;7.30;;;6.60;;
4766;SDS011;2397;53.576;9.746;2022-09-13T02:38:54;8.70;;;6.80;;
4766;SDS011;2397;53.576;9.746;2022-09-13T02:44:18;7.60;;;6.37;;
4766;SDS011;2397;53.576;9.746;2022-09-13T02:49:47;9.60;;;6.90;;
4766;SDS011;2397;53.576;9.746;2022-09-13T03:01:10;9.70;;;7.63;;
4766;SDS011;2397;53.576;9.746;2022-09-13T03:03:36;7.43;;;6.57;;
4766;SDS011;2397;53.576;9.746;2022-09-13T03:06:03;7.80;;;7.10;;
4766;SDS011;2397;53.576;9.746;2022-09-13T03:08:30;8.00;;;7.20;;
4766;SDS011;2397;53.576;9.746;2022-09-13T03:13:48;7.13;;;6.43;;
4766;SDS011;2397;53.576;9.746;2022-09-13T03:28:15;10.50;;;8.97;;
4766;SDS011;2397;53.576;9.746;2022-09-13T03:31:08;9.50;;;8.37;;
4766;SDS011;2397;53.576;9.746;2022-09-13T03:33:49;9.83;;;8.07;;
4766;SDS011;2397;53.576;9.746;2022-09-13T03:36:44;10.13;;;8.27;;
4766;SDS011;2397;53.576;9.746;2022-09-13T03:42:13;9.47;;;8.47;;
4766;SDS011;2397;53.576;9.746;2022-09-13T03:44:46;10.50;;;9.47;;
4766;SDS011;2397;53.576;9.746;2022-09-13T03:47:16;11.60;;;9.30;;
4766;SDS011;2397;53.576;9.746;2022-09-13T03:49:44;9.83;;;8.30;;
4766;SDS011;2397;53.576;9.746;2022-09-13T03:52:11;10.80;;;9.20;;
4766;SDS011;2397;53.576;9.746;2022-09-13T03:54:38;13.20;;;11.10;;
4766;SDS011;2397;53.576;9.746;2022-09-13T03:57:15;12.33;;;10.10;;
4766;SDS011;2397;53.576;9.746;2022-09-13T03:59:50;17.10;;;11.70;;
4766;SDS011;2397;53.576;9.746;2022-09-13T04:02:18;14.40;;;11.77;;
4766;SDS011;2397;53.576;9.746;2022-09-13T04:04:46;11.20;;;10.10;;
4766;SDS011;2397;53.576;9.746;2022-09-13T04:07:15;13.13;;;10.50;;
4766;SDS011;2397;53.576;9.746;2022-09-13T04:09:42;14.50;;;11.60;;
4766;SDS011;2397;53.576;9.746;2022-09-13T04:12:09;15.70;;;12.47;;
4766;SDS011;2397;53.576;9.746;2022-09-13T04:14:36;15.60;;;13.07;;
4766;SDS011;2397;53.576;9.746;2022-09-13T04:17:02;18.67;;;14.00;;
4766;SDS011;2397;53.576;9.746;2022-09-13T04:19:29;21.30;;;13.77;;
4766;SDS011;2397;53.576;9.746;2022-09-13T04:21:56;15.60;;;13.90;;
4766;SDS011;2397;53.576;9.746;2022-09-13T04:24:26;19.73;;;15.23;;
4766;SDS011;2397;53.576;9.746;2022-09-13T04:26:54;23.07;;;16.30;;
4766;SDS011;2397;53.576;9.746;2022-09-13T04:29:21;23.30;;;17.47;;
4766;SDS011;2397;53.576;9.746;2022-09-13T04:31:50;22.43;;;17.43;;
4766;SDS011;2397;53.576;9.746;2022-09-13T04:34:18;27.57;;;19.10;;
4766;SDS011;2397;53.576;9.746;2022-09-13T04:36:45;33.50;;;20.90;;
4766;SDS011;2397;53.576;9.746;2022-09-13T04:39:12;24.70;;;19.30;;
4766;SDS011;2397;53.576;9.746;2022-09-13T04:41:42;27.60;;;20.57;;
4766;SDS011;2397;53.576;9.746;2022-09-13T04:44:11;25.60;;;20.53;;
4766;SDS011;2397;53.576;9.746;2022-09-13T04:46:38;29.30;;;21.80;;
4766;SDS011;2397;53.576;9.746;2022-09-13T04:49:04;29.83;;;21.80;;
4766;SDS011;2397;53.576;9.746;2022-09-13T04:51:31;31.30;;;22.70;;
4766;SDS011;2397;53.576;9.746;2022-09-13T04:53:57;32.00;;;23.03;;
4766;SDS011;2397;53.576;9.746;2022-09-13T04:56:25;28.63;;;21.53;;
4766;SDS011;2397;53.576;9.746;2022-09-13T04:58:53;29.70;;;21.50;;
4766;SDS011;2397;53.576;9.746;2022-09-13T05:01:21;30.13;;;22.53;;
4766;SDS011;2397;53.576;9.746;2022-09-13T05:03:53;34.10;;;23.90;;
4766;SDS011;2397;53.576;9.746;2022-09-13T05:06:19;33.37;;;22.37;;
4766;SDS011;2397;53.576;9.746;2022-09-13T05:08:50;37.70;;;24.80;;
4766;SDS011;2397;53.576;9.746;2022-09-13T05:11:23;35.87;;;23.40;;
4766;SDS011;2397;53.576;9.746;2022-09-13T05:13:52;29.87;;;22.93;;
4766;SDS011;2397;53.576;9.746;2022-09-13T05:16:23;32.87;;;23.80;;
4766;SDS011;2397;53.576;9.746;2022-09-13T05:18:51;41.83;;;26.57;;
4766;SDS011;2397;53.576;9.746;2022-09-13T05:21:17;42.07;;;27.30;;
4766;SDS011;2397;53.576;9.746;2022-09-13T05:23:47;42.60;;;25.37;;
4766;SDS011;2397;53.576;9.746;2022-09-13T05:26:14;36.57;;;26.17;;
4766;SDS011;2397;53.576;9.746;2022-09-13T05:28:41;37.23;;;25.13;;
4766;SDS011;2397;53.576;9.746;2022-09-13T05:33:51;35.63;;;24.10;;
4766;SDS011;2397;53.576;9.746;2022-09-13T05:36:19;34.40;;;24.17;;
4766;SDS011;2397;53.576;9.746;2022-09-13T05:38:45;41.60;;;26.00;;
4766;SDS011;2397;53.576;9.746;2022-09-13T05:41:12;38.53;;;27.23;;
4766;SDS011;2397;53.576;9.746;2022-09-13T05:43:38;35.77;;;25.57;;
4766;SDS011;2397;53.576;9.746;2022-09-13T05:46:06;34.50;;;24.00;;
4766;SDS011;2397;53.576;9.746;2022-09-13T05:48:35;34.60;;;25.43;;
4766;SDS011;2397;53.576;9.746;2022-09-13T05:51:02;32.93;;;23.50;;
4766;SDS011;2397;53.576;9.746;2022-09-13T05:53:31;37.77;;;24.30;;
4766;SDS011;2397;53.576;9.746;2022-09-13T05:55:58;32.23;;;24.27;;
4766;SDS011;2397;53.576;9.746;2022-09-13T05:58:25;35.53;;;24.33;;
4766;SDS011;2397;53.576;9.746;2022-09-13T06:00:52;35.00;;;23.60;;
4766;SDS011;2397;53.576;9.746;2022-09-13T06:03:20;33.13;;;23.90;;
4766;SDS011;2397;53.576;9.746;2022-09-13T06:05:47;33.07;;;23.90;;
4766;SDS011;2397;53.576;9.746;2022-09-13T06:08:13;31.40;;;22.00;;
4766;SDS011;2397;53.576;9.746;2022-09-13T06:10:40;30.47;;;22.63;;
4766;SDS011;2397;53.576;9.746;2022-09-13T06:13:07;28.73;;;21.80;;
4766;SDS011;2397;53.576;9.746;2022-09-13T06:15:33;32.57;;;20.40;;
4766;SDS011;2397;53.576;9.746;2022-09-13T06:18:05;29.80;;;22.50;;
4766;SDS011;2397;53.576;9.746;2022-09-13T06:20:31;29.63;;;20.90;;
4766;SDS011;2397;53.576;9.746;2022-09-13T06:22:57;26.57;;;18.87;;
4766;SDS011;2397;53.576;9.746;2022-09-13T06:25:24;27.43;;;19.43;;
4766;SDS011;2397;53.576;9.746;2022-09-13T06:27:50;26.73;;;20.20;;
4766;SDS011;2397;53.576;9.746;2022-09-13T06:30:17;22.10;;;18.33;;
4766;SDS011;2397;53.576;9.746;2022-09-13T06:32:44;26.47;;;17.20;;
4766;SDS011;2397;53.576;9.746;2022-09-13T06:35:10;21.70;;;15.40;;
4766;SDS011;2397;53.576;9.746;2022-09-13T06:37:37;18.53;;;14.50;;
4766;SDS011;2397;53.576;9.746;2022-09-13T06:40:03;22.83;;;16.03;;
4766;SDS011;2397;53.576;9.746;2022-09-13T06:42:35;23.00;;;15.07;;
4766;SDS011;2397;53.576;9.746;2022-09-13T06:45:02;17.03;;;13.50;;
4766;SDS011;2397;53.576;9.746;2022-09-13T06:47:29;20.80;;;15.07;;
4766;SDS011;2397;53.576;9.746;2022-09-13T06:49:55;19.67;;;14.80;;
4766;SDS011;2397;53.576;9.746;2022-09-13T06:52:23;18.37;;;13.30;;
4766;SDS011;2397;53.576;9.746;2022-09-13T06:54:49;18.70;;;13.30;;
4766;SDS011;2397;53.576;9.746;2022-09-13T06:57:16;19.50;;;14.77;;
4766;SDS011;2397;53.576;9.746;2022-09-13T06:59:42;22.07;;;15.27;;
4766;SDS011;2397;53.576;9.746;2022-09-13T07:02:09;18.93;;;15.20;;
4766;SDS011;2397;53.576;9.746;2022-09-13T07:04:35;20.67;;;14.33;;
4766;SDS011;2397;53.576;9.746;2022-09-13T07:07:02;17.90;;;13.90;;
4766;SDS011;2397;53.576;9.746;2022-09-13T07:09:29;20.23;;;15.13;;
4766;SDS011;2397;53.576;9.746;2022-09-13T07:11:56;21.70;;;14.80;;
4766;SDS011;2397;53.576;9.746;2022-09-13T07:14:23;20.70;;;14.57;;
4766;SDS011;2397;53.576;9.746;2022-09-13T07:16:51;18.33;;;13.33;;
4766;SDS011;2397;53.576;9.746;2022-09-13T07:19:25;18.90;;;11.17;;
4766;SDS011;2397;53.576;9.746;2022-09-13T07:21:53;13.10;;;9.70;;
4766;SDS011;2397;53.576;9.746;2022-09-13T07:24:21;12.00;;;9.07;;
4766;SDS011;2397;53.576;9.746;2022-09-13T07:26:47;12.53;;;9.27;;
4766;SDS011;2397;53.576;9.746;2022-09-13T07:29:16;16.23;;;8.63;;
4766;SDS011;2397;53.576;9.746;2022-09-13T07:31:45;10.40;;;8.00;;
4766;SDS011;2397;53.576;9.746;2022-09-13T07:34:14;10.67;;;7.80;;
4766;SDS011;2397;53.576;9.746;2022-09-13T07:36:43;14.60;;;7.20;;
4766;SDS011;2397;53.576;9.746;2022-09-13T07:39:12;9.20;;;7.90;;
4766;SDS011;2397;53.576;9.746;2022-09-13T07:41:47;8.83;;;7.63;;
4766;SDS011;2397;53.576;9.746;2022-09-13T07:44:14;9.87;;;7.87;;
4766;SDS011;2397;53.576;9.746;2022-09-13T07:46:40;15.50;;;8.10;;
4766;SDS011;2397;53.576;9.746;2022-09-13T07:49:09;13.93;;;7.00;;
4766;SDS011;2397;53.576;9.746;2022-09-13T07:51:37;10.10;;;7.17;;
4766;SDS011;2397;53.576;9.746;2022-09-13T07:54:06;13.33;;;7.60;;
4766;SDS011;2397;53.576;9.746;2022-09-13T07:56:37;12.20;;;6.93;;
4766;SDS011;2397;53.576;9.746;2022-09-13T07:59:05;14.40;;;6.57;;
4766;SDS011;2397;53.576;9.746;2022-09-13T08:01:34;10.63;;;7.33;;
4766;SDS011;2397;53.576;9.746;2022-09-13T08:04:12;12.53;;;6.87;;
4766;SDS011;2397;53.576;9.746;2022-09-13T08:06:42;8.00;;;6.10;;
4766;SDS011;2397;53.576;9.746;2022-09-13T08:09:08;8.93;;;6.03;;
4766;SDS011;2397;53.576;9.746;2022-09-13T08:11:39;10.43;;;6.47;;
4766;SDS011;2397;53.576;9.746;2022-09-13T08:14:08;8.80;;;5.97;;
4766;SDS011;2397;53.576;9.746;2022-09-13T08:16:36;8.17;;;6.27;;
4766;SDS011;2397;53.576;9.746;2022-09-13T08:19:04;8.93;;;5.37;;
4766;SDS011;2397;53.576;9.746;2022-09-13T08:21:33;8.30;;;4.77;;
4766;SDS011;2397;53.576;9.746;2022-09-13T08:24:01;11.23;;;4.63;;
4766;SDS011;2397;53.576;9.746;2022-09-13T08:26:29;12.13;;;4.43;;
4766;SDS011;2397;53.576;9.746;2022-09-13T08:28:58;11.37;;;4.30;;
4766;SDS011;2397;53.576;9.746;2022-09-13T08:31:27;4.83;;;3.50;;
4766;SDS011;2397;53.576;9.746;2022-09-13T08:33:54;11.00;;;3.40;;
4766;SDS011;2397;53.576;9.746;2022-09-13T08:36:21;9.40;;;2.87;;
4766;SDS011;2397;53.576;9.746;2022-09-13T08:38:58;10.20;;;2.60;;
4766;SDS011;2397;53.576;9.746;2022-09-13T08:46:44;4.63;;;2.10;;
4766;SDS011;2397;53.576;9.746;2022-09-13T08:49:14;6.80;;;2.17;;
4766;SDS011;2397;53.576;9.746;2022-09-13T08:52:04;4.83;;;1.93;;
4766;SDS011;2397;53.576;9.746;2022-09-13T08:54:37;5.40;;;1.80;;
4766;SDS011;2397;53.576;9.746;2022-09-13T08:57:16;3.90;;;2.07;;
4766;SDS011;2397;53.576;9.746;2022-09-13T08:59:53;4.97;;;2.00;;
4766;SDS011;2397;53.576;9.746;2022-09-13T09:05:20;8.57;;;1.60;;
4766;SDS011;2397;53.576;9.746;2022-09-13T09:07:59;6.33;;;2.37;;
4766;SDS011;2397;53.576;9.746;2022-09-13T09:10:31;7.17;;;2.97;;
4766;SDS011;2397;53.576;9.746;2022-09-13T09:13:04;2.67;;;1.50;;
4766;SDS011;2397;53.576;9.746;2022-09-13T09:15:52;5.70;;;2.13;;
4766;SDS011;2397;53.576;9.746;2022-09-13T09:18:24;6.90;;;1.80;;
4766;SDS011;2397;53.576;9.746;2022-09-13T09:20:56;6.07;;;1.90;;
4766;SDS011;2397;53.576;9.746;2022-09-13T09:23:26;10.20;;;1.80;;
4766;SDS011;2397;53.576;9.746;2022-09-13T09:28:53;3.43;;;1.70;;
4766;SDS011;2397;53.576;9.746;2022-09-13T09:31:36;4.93;;;2.00;;
4766;SDS011;2397;53.576;9.746;2022-09-13T09:39:53;6.40;;;1.47;;
4766;SDS011;2397;53.576;9.746;2022-09-13T09:42:24;4.00;;;1.20;;
4766;SDS011;2397;53.576;9.746;2022-09-13T09:44:58;3.20;;;1.20;;
4766;SDS011;2397;53.576;9.746;2022-09-13T09:47:39;4.73;;;1.50;;
4766;SDS011;2397;53.576;9.746;2022-09-13T09:50:16;4.63;;;1.50;;
4766;SDS011;2397;53.576;9.746;2022-09-13T10:00:29;3.77;;;1.93;;
4766;SDS011;2397;53.576;9.746;2022-09-13T10:02:58;4.43;;;2.00;;
4766;SDS011;2397;53.576;9.746;2022-09-13T10:05:27;8.57;;;1.83;;
4766;SDS011;2397;53.576;9.746;2022-09-13T10:07:56;2.13;;;1.60;;
4766;SDS011;2397;53.576;9.746;2022-09-13T10:10:28;4.67;;;1.60;;
4766;SDS011;2397;53.576;9.746;2022-09-13T10:13:03;4.53;;;1.43;;
4766;SDS011;2397;53.576;9.746;2022-09-13T10:15:32;4.97;;;1.60;;
4766;SDS011;2397;53.576;9.746;2022-09-13T10:18:02;1.90;;;1.30;;
4766;SDS011;2397;53.576;9.746;2022-09-13T10:21:09;4.73;;;1.60;;
4766;SDS011;2397;53.576;9.746;2022-09-13T10:23:48;4.07;;;1.63;;
4766;SDS011;2397;53.576;9.746;2022-09-13T10:26:16;3.60;;;1.27;;
4766;SDS011;2397;53.576;9.746;2022-09-13T10:31:43;3.80;;;1.70;;
4766;SDS011;2397;53.576;9.746;2022-09-13T10:36:57;3.40;;;1.40;;
4766;SDS011;2397;53.576;9.746;2022-09-13T10:39:29;4.97;;;1.90;;
4766;SDS011;2397;53.576;9.746;2022-09-13T10:42:01;7.10;;;2.17;;
4766;SDS011;2397;53.576;9.746;2022-09-13T10:44:44;2.53;;;1.30;;
4766;SDS011;2397;53.576;9.746;2022-09-13T10:47:17;3.67;;;2.10;;
4766;SDS011;2397;53.576;9.746;2022-09-13T10:49:49;3.27;;;1.63;;
4766;SDS011;2397;53.576;9.746;2022-09-13T10:52:24;3.10;;;1.40;;
4766;SDS011;2397;53.576;9.746;2022-09-13T10:54:53;5.20;;;1.57;;
4766;SDS011;2397;53.576;9.746;2022-09-13T10:57:31;3.37;;;1.43;;
4766;SDS011;2397;53.576;9.746;2022-09-13T11:00:00;3.73;;;1.60;;
4766;SDS011;2397;53.576;9.746;2022-09-13T11:02:48;4.27;;;1.60;;
4766;SDS011;2397;53.576;9.746;2022-09-13T11:10:46;3.03;;;1.60;;
4766;SDS011;2397;53.576;9.746;2022-09-13T11:13:27;4.10;;;1.50;;
4766;SDS011;2397;53.576;9.746;2022-09-13T11:16:13;5.37;;;1.60;;
4766;SDS011;2397;53.576;9.746;2022-09-13T11:21:55;9.90;;;2.40;;
4766;SDS011;2397;53.576;9.746;2022-09-13T11:24:56;2.90;;;1.87;;
4766;SDS011;2397;53.576;9.746;2022-09-13T11:30:17;4.23;;;1.53;;
4766;SDS011;2397;53.576;9.746;2022-09-13T11:32:51;5.03;;;1.80;;
4766;SDS011;2397;53.576;9.746;2022-09-13T11:41:46;6.33;;;2.13;;
4766;SDS011;2397;53.576;9.746;2022-09-13T11:44:31;8.37;;;1.80;;
4766;SDS011;2397;53.576;9.746;2022-09-13T11:50:22;3.40;;;1.60;;
4766;SDS011;2397;53.576;9.746;2022-09-13T11:56:12;5.90;;;1.60;;
4766;SDS011;2397;53.576;9.746;2022-09-13T11:58:52;7.20;;;1.87;;
4766;SDS011;2397;53.576;9.746;2022-09-13T12:01:26;4.37;;;1.47;;
4766;SDS011;2397;53.576;9.746;2022-09-13T12:04:07;4.10;;;1.80;;
4766;SDS011;2397;53.576;9.746;2022-09-13T12:06:39;4.80;;;1.80;;
4766;SDS011;2397;53.576;9.746;2022-09-13T12:09:33;10.77;;;1.73;;
4766;SDS011;2397;53.576;9.746;2022-09-13T12:14:38;2.90;;;1.80;;
4766;SDS011;2397;53.576;9.746;2022-09-13T12:17:16;3.30;;;1.97;;
4766;SDS011;2397;53.576;9.746;2022-09-13T12:20:00;4.63;;;1.60;;
4766;SDS011;2397;53.576;9.746;2022-09-13T12:22:29;4.60;;;1.70;;
4766;SDS011;2397;53.576;9.746;2022-09-13T12:25:04;6.30;;;1.97;;
4766;SDS011;2397;53.576;9.746;2022-09-13T12:27:49;10.40;;;2.13;;
4766;SDS011;2397;53.576;9.746;2022-09-13T12:30:22;7.10;;;1.63;;
4766;SDS011;2397;53.576;9.746;2022-09-13T12:32:57;3.33;;;2.00;;
4766;SDS011;2397;53.576;9.746;2022-09-13T12:35:28;4.07;;;1.80;;
4766;SDS011;2397;53.576;9.746;2022-09-13T12:38:05;3.20;;;1.70;;
4766;SDS011;2397;53.576;9.746;2022-09-13T12:44:01;6.13;;;2.00;;
4766;SDS011;2397;53.576;9.746;2022-09-13T12:49:25;5.03;;;1.77;;
4766;SDS011;2397;53.576;9.746;2022-09-13T12:52:05;14.27;;;1.87;;
4766;SDS011;2397;53.576;9.746;2022-09-13T12:58:17;4.37;;;1.60;;
4766;SDS011;2397;53.576;9.746;2022-09-13T13:01:00;8.03;;;2.40;;
4766;SDS011;2397;53.576;9.746;2022-09-13T13:04:15;4.83;;;1.97;;
4766;SDS011;2397;53.576;9.746;2022-09-13T13:09:35;3.83;;;1.70;;
4766;SDS011;2397;53.576;9.746;2022-09-13T13:12:09;6.00;;;1.70;;
4766;SDS011;2397;53.576;9.746;2022-09-13T13:23:36;3.10;;;1.40;;
4766;SDS011;2397;53.576;9.746;2022-09-13T13:34:37;5.40;;;1.93;;
4766;SDS011;2397;53.576;9.746;2022-09-13T13:39:36;6.13;;;2.03;;
4766;SDS011;2397;53.576;9.746;2022-09-13T13:45:04;4.10;;;1.53;;
4766;SDS011;2397;53.576;9.746;2022-09-13T13:47:40;5.80;;;2.07;;
4766;SDS011;2397;53.576;9.746;2022-09-13T13:50:18;4.30;;;2.60;;
4766;SDS011;2397;53.576;9.746;2022-09-13T13:55:30;4.63;;;1.87;;
4766;SDS011;2397;53.576;9.746;2022-09-13T13:58:29;5.70;;;2.03;;
4766;SDS011;2397;53.576;9.746;2022-09-13T14:01:02;6.60;;;1.93;;
4766;SDS011;2397;53.576;9.746;2022-09-13T14:06:27;4.80;;;1.90;;
4766;SDS011;2397;53.576;9.746;2022-09-13T14:09:37;10.33;;;2.57;;
4766;SDS011;2397;53.576;9.746;2022-09-13T14:15:16;7.73;;;1.93;;
4766;SDS011;2397;53.576;9.746;2022-09-13T14:18:17;5.57;;;1.60;;
4766;SDS011;2397;53.576;9.746;2022-09-13T14:20:57;10.90;;;2.17;;
4766;SDS011;2397;53.576;9.746;2022-09-13T14:23:24;9.10;;;1.67;;
4766;SDS011;2397;53.576;9.746;2022-09-13T14:25:53;8.83;;;2.37;;
4766;SDS011;2397;53.576;9.746;2022-09-13T14:28:21;6.00;;;1.83;;
4766;SDS011;2397;53.576;9.746;2022-09-13T14:30:58;5.10;;;2.00;;
4766;SDS011;2397;53.576;9.746;2022-09-13T14:33:26;9.20;;;2.20;;
4766;SDS011;2397;53.576;9.746;2022-09-13T14:36:01;6.47;;;1.97;;
4766;SDS011;2397;53.576;9.746;2022-09-13T14:38:28;6.70;;;2.30;;
4766;SDS011;2397;53.576;9.746;2022-09-13T14:41:22;10.20;;;2.20;;
4766;SDS011;2397;53.576;9.746;2022-09-13T14:43:53;6.13;;;2.20;;
4766;SDS011;2397;53.576;9.746;2022-09-13T14:49:58;6.17;;;2.10;;
4766;SDS011;2397;53.576;9.746;2022-09-13T14:52:30;5.33;;;2.00;;
4766;SDS011;2397;53.576;9.746;2022-09-13T14:55:03;15.90;;;2.43;;
4766;SDS011;2397;53.576;9.746;2022-09-13T14:57:35;6.30;;;1.60;;
4766;SDS011;2397;53.576;9.746;2022-09-13T15:00:14;7.60;;;2.10;;
4766;SDS011;2397;53.576;9.746;2022-09-13T15:02:48;4.27;;;1.97;;
4766;SDS011;2397;53.576;9.746;2022-09-13T15:05:18;7.17;;;1.80;;
4766;SDS011;2397;53.576;9.746;2022-09-13T15:07:47;4.30;;;2.10;;
4766;SDS011;2397;53.576;9.746;2022-09-13T15:15:40;8.97;;;2.50;;
4766;SDS011;2397;53.576;9.746;2022-09-13T15:20:47;7.13;;;1.87;;
4766;SDS011;2397;53.576;9.746;2022-09-13T15:23:25;14.00;;;2.50;;
4766;SDS011;2397;53.576;9.746;2022-09-13T15:25:55;11.33;;;2.10;;
4766;SDS011;2397;53.576;9.746;2022-09-13T15:28:27;5.77;;;2.00;;
4766;SDS011;2397;53.576;9.746;2022-09-13T15:30:56;6.20;;;2.30;;
4766;SDS011;2397;53.576;9.746;2022-09-13T15:33:29;5.63;;;1.70;;
4766;SDS011;2397;53.576;9.746;2022-09-13T15:38:58;9.07;;;2.20;;
4766;SDS011;2397;53.576;9.746;2022-09-13T15:41:35;6.27;;;2.10;;
4766;SDS011;2397;53.576;9.746;2022-09-13T15:44:04;10.90;;;2.20;;
4766;SDS011;2397;53.576;9.746;2022-09-13T15:46:45;7.50;;;1.90;;
4766;SDS011;2397;53.576;9.746;2022-09-13T15:49:20;7.70;;;1.90;;
4766;SDS011;2397;53.576;9.746;2022-09-13T15:51:52;9.37;;;2.47;;
4766;SDS011;2397;53.576;9.746;2022-09-13T15:54:21;7.03;;;1.70;;
4766;SDS011;2397;53.576;9.746;2022-09-13T15:56:50;2.70;;;1.60;;
4766;SDS011;2397;53.576;9.746;2022-09-13T15:59:19;8.33;;;1.63;;
4766;SDS011;2397;53.576;9.746;2022-09-13T16:01:47;3.27;;;1.60;;
4766;SDS011;2397;53.576;9.746;2022-09-13T16:04:15;4.30;;;1.70;;
4766;SDS011;2397;53.576;9.746;2022-09-13T16:06:42;6.77;;;2.00;;
4766;SDS011;2397;53.576;9.746;2022-09-13T16:09:10;4.63;;;1.63;;
4766;SDS011;2397;53.576;9.746;2022-09-13T16:11:43;6.03;;;1.63;;
4766;SDS011;2397;53.576;9.746;2022-09-13T16:14:10;3.47;;;1.77;;
4766;SDS011;2397;53.576;9.746;2022-09-13T16:16:36;4.53;;;1.50;;
4766;SDS011;2397;53.576;9.746;2022-09-13T16:19:03;6.03;;;1.80;;
4766;SDS011;2397;53.576;9.746;2022-09-13T16:21:30;3.73;;;1.60;;
4766;SDS011;2397;53.576;9.746;2022-09-13T16:23:56;6.00;;;1.63;;
4766;SDS011;2397;53.576;9.746;2022-09-13T16:26:23;4.20;;;1.70;;
4766;SDS011;2397;53.576;9.746;2022-09-13T16:28:59;8.73;;;1.50;;
4766;SDS011;2397;53.576;9.746;2022-09-13T16:31:26;4.00;;;1.63;;
4766;SDS011;2397;53.576;9.746;2022-09-13T16:33:52;2.60;;;1.70;;
4766;SDS011;2397;53.576;9.746;2022-09-13T16:36:19;4.80;;;1.37;;
4766;SDS011;2397;53.576;9.746;2022-09-13T16:38:45;10.03;;;2.13;;
4766;SDS011;2397;53.576;9.746;2022-09-13T16:41:12;5.60;;;1.73;;
4766;SDS011;2397;53.576;9.746;2022-09-13T16:43:38;10.20;;;1.77;;
4766;SDS011;2397;53.576;9.746;2022-09-13T16:46:05;4.97;;;1.77;;
4766;SDS011;2397;53.576;9.746;2022-09-13T16:48:32;7.60;;;1.47;;
4766;SDS011;2397;53.576;9.746;2022-09-13T16:51:02;5.60;;;1.70;;
4766;SDS011;2397;53.576;9.746;2022-09-13T16:53:34;4.07;;;1.50;;
4766;SDS011;2397;53.576;9.746;2022-09-13T16:58:34;2.97;;;1.60;;
4766;SDS011;2397;53.576;9.746;2022-09-13T17:01:05;4.70;;;1.93;;
4766;SDS011;2397;53.576;9.746;2022-09-13T17:03:36;11.17;;;2.33;;
4766;SDS011;2397;53.576;9.746;2022-09-13T17:06:05;8.10;;;1.67;;
4766;SDS011;2397;53.576;9.746;2022-09-13T17:08:33;9.83;;;2.10;;
4766;SDS011;2397;53.576;9.746;2022-09-13T17:11:20;4.47;;;1.60;;
4766;SDS011;2397;53.576;9.746;2022-09-13T17:13:49;4.10;;;1.70;;
4766;SDS011;2397;53.576;9.746;2022-09-13T17:19:06;6.27;;;1.93;;
4766;SDS011;2397;53.576;9.746;2022-09-13T17:21:36;4.30;;;1.80;;
4766;SDS011;2397;53.576;9.746;2022-09-13T17:24:03;3.87;;;1.70;;
4766;SDS011;2397;53.576;9.746;2022-09-13T17:26:36;9.97;;;2.60;;
4766;SDS011;2397;53.576;9.746;2022-09-13T17:29:03;8.10;;;1.83;;
4766;SDS011;2397;53.576;9.746;2022-09-13T17:31:30;8.13;;;1.90;;
4766;SDS011;2397;53.576;9.746;2022-09-13T17:33:56;5.50;;;1.67;;
4766;SDS011;2397;53.576;9.746;2022-09-13T17:36:23;9.37;;;2.30;;
4766;SDS011;2397;53.576;9.746;2022-09-13T17:38:53;7.23;;;1.87;;
4766;SDS011;2397;53.576;9.746;2022-09-13T17:41:22;5.33;;;1.73;;
4766;SDS011;2397;53.576;9.746;2022-09-13T17:43:49;7.77;;;1.90;;
4766;SDS011;2397;53.576;9.746;2022-09-13T17:46:18;4.40;;;1.40;;
4766;SDS011;2397;53.576;9.746;2022-09-13T17:48:49;5.13;;;2.03;;
4766;SDS011;2397;53.576;9.746;2022-09-13T17:51:19;6.60;;;1.57;;
4766;SDS011;2397;53.576;9.746;2022-09-13T17:53:51;21.27;;;2.77;;
4766;SDS011;2397;53.576;9.746;2022-09-13T17:56:40;3.50;;;1.70;;
4766;SDS011;2397;53.576;9.746;2022-09-13T17:59:12;14.47;;;4.03;;
4766;SDS011;2397;53.576;9.746;2022-09-13T18:01:41;8.43;;;1.93;;
4766;SDS011;2397;53.576;9.746;2022-09-13T18:04:10;3.77;;;1.63;;
4766;SDS011;2397;53.576;9.746;2022-09-13T18:06:37;8.33;;;2.30;;
4766;SDS011;2397;53.576;9.746;2022-09-13T18:09:08;5.70;;;1.87;;
4766;SDS011;2397;53.576;9.746;2022-09-13T18:11:35;5.53;;;1.50;;
4766;SDS011;2397;53.576;9.746;2022-09-13T18:14:02;4.83;;;2.10;;
4766;SDS011;2397;53.576;9.746;2022-09-13T18:16:29;3.93;;;1.80;;
4766;SDS011;2397;53.576;9.746;2022-09-13T18:18:57;7.83;;;2.23;;
4766;SDS011;2397;53.576;9.746;2022-09-13T18:21:25;7.53;;;2.40;;
4766;SDS011;2397;53.576;9.746;2022-09-13T18:23:54;6.30;;;1.70;;
4766;SDS011;2397;53.576;9.746;2022-09-13T18:26:27;5.23;;;1.60;;
4766;SDS011;2397;53.576;9.746;2022-09-13T18:28:55;5.10;;;1.60;;
4766;SDS011;2397;53.576;9.746;2022-09-13T18:31:23;4.90;;;1.53;;
4766;SDS011;2397;53.576;9.746;2022-09-13T18:33:54;2.60;;;1.50;;
4766;SDS011;2397;53.576;9.746;2022-09-13T18:36:22;6.03;;;1.70;;
4766;SDS011;2397;53.576;9.746;2022-09-13T18:38:49;4.00;;;1.50;;
4766;SDS011;2397;53.576;9.746;2022-09-13T18:41:18;2.50;;;1.87;;